• Join FlightAware (Why Join?)
  • Login
  • US Flag 
02:26AM EDT


 

Airport Tracker/Info


-or-


 

Live Flight TrackerFlight Track Log ✈ DAL268 ✈ 02-May-2013 ✈ KJFK - LLBG / TLV

Flight Track Log - Related Links

Times and Time Zones

All times are in EDT time to prevent confusion due to time zone crossing. See the DAL268 flight status page for this flight to view local times or setup timezone preferences in your user account.

Time Position Orientation Groundspeed Altitude Reporting Facility
EDT Latitude Longitude Course Direction KTS MPH feet Rate Location/Type
11:47PM 40.6420 -73.7710 27° Northeast 174 200  Level FlightAware
11:47PM 40.6610 -73.7530 36° Northeast 181 208 500 1,320 Climbing FlightAware
11:47PM 40.6660 -73.7370 68° East 183 211 1,000 1,620 Climbing FlightAware
11:48PM 40.6670 -73.7090 87° East 200 230 1,600 1,380 Climbing FlightAware
11:48PM 40.6700 -73.6690 84° East 226 260 2,300 1,380 Climbing FlightAware
11:49PM 40.6720 -73.6330 86° East 238 274 2,900 1,620 Climbing FlightAware
11:49PM 40.6740 -73.5880 87° East 257 296 3,800 1,740 Climbing FlightAware
11:50PM 40.6680 -73.5490 101° East 275 316 4,500 1,860 Climbing FlightAware
11:50PM 40.6521 -73.5103 118° Southeast 290 334 5,300 2,280 Climbing FlightAware ADS-B
11:50PM 40.6361 -73.4791 124° Southeast 295 339 6,200 2,220 Climbing FlightAware ADS-B
11:51PM 40.6240 -73.4552 124° Southeast 301 346 6,700 1,680 Climbing FlightAware ADS-B
11:51PM 40.6116 -73.4298 123° Southeast 313 360 7,100 1,920 Climbing FlightAware ADS-B
11:51PM 40.5970 -73.4007 123° Southeast 317 365 7,800 2,460 Climbing FlightAware ADS-B
11:51PM 40.5845 -73.3752 123° Southeast 316 364 8,500 2,460 Climbing FlightAware ADS-B
11:52PM 40.5727 -73.3508 122° Southeast 322 371 9,100 2,100 Climbing FlightAware ADS-B
11:52PM 40.5595 -73.3243 123° Southeast 326 375 9,600 2,460 Climbing FlightAware ADS-B
11:52PM 40.5344 -73.2755 124° Southeast 321 369 11,000 2,400 Climbing FlightAware ADS-B
11:53PM 40.5183 -73.2437 124° Southeast 326 375 11,600 1,620 Climbing FlightAware ADS-B
11:53PM 40.5117 -73.2261 116° Southeast 328 377 11,800 840 Climbing FlightAware ADS-B
11:53PM 40.5094 -73.2178 110° East 329 379 11,800  Level FlightAware ADS-B
11:53PM 40.5084 -73.2117 102° East 329 379 11,800 540 Level FlightAware ADS-B
11:53PM 40.5072 -73.1958 96° East 332 382 11,900 600 Climbing FlightAware ADS-B
11:53PM 40.5076 -73.1732 89° East 338 389 12,000 960 Climbing FlightAware ADS-B
11:54PM 40.5136 -73.1089 83° East 360 414 12,600 1,140 Climbing FlightAware ADS-B
11:54PM 40.5186 -73.0395 85° East 378 435 13,200 1,440 Climbing FlightAware ADS-B
11:55PM 40.5340 -72.9210 80° East 395 455 14,600 1,620 Climbing FlightAware
11:56PM 40.5450 -72.8270 81° East 408 470 15,700 1,860 Climbing FlightAware
11:57PM 40.5580 -72.7150 81° East 409 471 17,300 1,620 Climbing FlightAware
11:57PM 40.5710 -72.6150 80° East 428 493 18,000 1,320 Climbing FlightAware
11:58PM 40.5840 -72.5090 81° East 436 502 19,100 900 Climbing FlightAware
11:59PM 40.6020 -72.3650 81° East 443 510 19,500 1,380 Climbing FlightAware
12:00AM 40.6150 -72.2410 82° East 455 524 21,400 2,460 Climbing FlightAware
12:00AM 40.6206 -72.1932 81° East 458 527 21,800 1,440 Climbing FlightAware ADS-B
12:01AM 40.6313 -72.1019 81° East 462 532 22,600 1,320 Climbing FlightAware ADS-B
12:01AM 40.6411 -72.0179 81° East 466 536 23,200 1,020 Climbing FlightAware ADS-B
12:02AM 40.6518 -71.9253 81° East 474 545 23,700 1,020 Climbing FlightAware ADS-B
12:02AM 40.6668 -71.7952 81° East 482 555 24,600 600 Climbing FlightAware ADS-B
12:04AM 40.6920 -71.5800 81° East 488 562 25,000 840 Climbing FlightAware
12:04AM 40.6956 -71.5417 83° East 499 574 25,800 1,560 Climbing FlightAware ADS-B
12:05AM 40.7133 -71.3503 83° East 490 564 26,800 1,140 Climbing Boston Center
12:07AM 40.7558 -70.9881 81° East 510 587 29,400 1,200 Climbing New York Center
12:08AM 40.7769 -70.8156 81° East 491 565 30,500 720 Climbing New York Center
12:09AM 40.7958 -70.6347 82° East 491 565 30,900 180 Climbing New York Center
12:10AM 40.8122 -70.4592 83° East 486 559 30,900  Level New York Center
12:11AM 40.8306 -70.2783 82° East 480 552 30,900  Level New York Center
12:12AM 40.8483 -70.1081 82° East 480 552 30,900 480 Level New York Center
12:13AM 40.8642 -69.9353 83° East 480 552 31,900 480 Climbing New York Center
12:14AM 40.8794 -69.7622 83° East 480 552 31,900  Level New York Center
12:15AM 40.8967 -69.5917 82° East 480 552 31,900  Level New York Center
12:16AM 40.9139 -69.4214 82° East 468 539 31,900  Level New York Center
12:17AM 40.9286 -69.2564 83° East 461 531 31,900  Level New York Center
12:18AM 40.9431 -69.0939 83° East 450 518 31,900  Level New York Center
12:19AM 40.9575 -68.9286 83° East 444 511 31,900  Level New York Center
12:20AM 40.9736 -68.7608 83° East 449 517 31,900  Level New York Center
12:21AM 40.9875 -68.6008 83° East 449 517 31,900  Level New York Center
12:22AM 41.0011 -68.4328 84° East 449 517 31,900  Level New York Center
12:23AM 41.0167 -68.2756 82° East 454 522 31,900  Level New York Center
12:24AM 41.0297 -68.1075 84° East 459 528 31,900  Level New York Center
12:25AM 41.0406 -67.9447 85° East 459 528 31,900  Level New York Center
12:26AM 41.0553 -67.7736 83° East 459 528 31,900  Level New York Center
12:27AM 41.0697 -67.6050 83° East 465 535 31,900  Level New York Center
12:28AM 41.0819 -67.4394 84° East 465 535 31,900  Level New York Center
12:29AM 41.0961 -67.2708 84° East 465 535 31,900  Level New York Center
12:31AM 41.1224 -66.9876 58° Northeast  Level FlightAware Approximate
12:32AM 41.1167 -67.0000 78° East 446 513 32,000  Level New York Oceanic (ODAPS)
12:38AM 41.2892 -65.8741 79° East 446 513 32,000  Level FlightAware Transoceanic
12:39AM 41.3130 -65.7128 79° East 446 513 32,000  Level FlightAware Transoceanic
12:40AM 41.3365 -65.5514 79° East 446 513 32,000  Level FlightAware Transoceanic
12:41AM 41.3598 -65.3898 79° East 446 513 32,000  Level FlightAware Transoceanic
12:42AM 41.3829 -65.2282 79° East 446 513 32,000  Level FlightAware Transoceanic
12:43AM 41.4057 -65.0664 79° East 446 513 32,000  Level FlightAware Transoceanic
12:44AM 41.4283 -64.9045 79° East 446 513 32,000  Level FlightAware Transoceanic
12:45AM 41.4507 -64.7425 80° East 446 513 32,000  Level FlightAware Transoceanic
12:46AM 41.4729 -64.5804 80° East 446 513 32,000  Level FlightAware Transoceanic
12:47AM 41.4949 -64.4181 80° East 446 513 32,000  Level FlightAware Transoceanic
12:48AM 41.5166 -64.2558 80° East 446 513 32,000  Level FlightAware Transoceanic
12:49AM 41.5381 -64.0934 80° East 446 513 32,000  Level FlightAware Transoceanic
12:50AM 41.5593 -63.9308 80° East 446 513 32,000  Level FlightAware Transoceanic
12:51AM 41.5803 -63.7681 80° East 446 513 32,000  Level FlightAware Transoceanic
12:52AM 41.6011 -63.6054 80° East 446 513 32,000  Level FlightAware Transoceanic
12:53AM 41.6217 -63.4425 80° East 446 513 32,000  Level FlightAware Transoceanic
12:54AM 41.6420 -63.2795 81° East 446 513 32,000  Level FlightAware Transoceanic
12:55AM 41.6621 -63.1165 81° East 446 513 32,000  Level FlightAware Transoceanic
12:56AM 41.6820 -62.9533 81° East 446 513 32,000  Level FlightAware Transoceanic
12:57AM 41.7016 -62.7900 81° East 446 513 32,000  Level FlightAware Transoceanic
12:58AM 41.7211 -62.6266 81° East 446 513 32,000  Level FlightAware Transoceanic
12:59AM 41.7402 -62.4632 81° East 446 513 32,000  Level FlightAware Transoceanic
01:00AM 41.7592 -62.2996 81° East 446 513 32,000  Level FlightAware Transoceanic
01:01AM 41.7779 -62.1359 81° East 446 513 32,000  Level FlightAware Transoceanic
01:02AM 41.7964 -61.9721 81° East 446 513 32,000  Level FlightAware Transoceanic
01:03AM 41.8147 -61.8083 82° East 446 513 32,000  Level FlightAware Transoceanic
01:04AM 41.8327 -61.6443 82° East 446 513 32,000  Level FlightAware Transoceanic
01:05AM 41.8505 -61.4803 82° East 446 513 32,000  Level FlightAware Transoceanic
01:06AM 41.8680 -61.3162 82° East 446 513 32,000  Level FlightAware Transoceanic
01:07AM 41.8853 -61.1520 82° East 446 513 32,000  Level FlightAware Transoceanic
01:08AM 41.9024 -60.9877 82° East 446 513 32,000  Level FlightAware Transoceanic
01:09AM 41.9193 -60.8232 82° East 446 513 32,000  Level FlightAware Transoceanic
01:10AM 41.9359 -60.6588 82° East 446 513 32,000  Level FlightAware Transoceanic
01:11AM 41.9523 -60.4942 82° East 446 513 32,000  Level FlightAware Transoceanic
01:12AM 41.9684 -60.3296 83° East 446 513 32,000  Level FlightAware Transoceanic
01:13AM 41.9843 -60.1648 83° East 446 513 32,000  Level FlightAware Transoceanic
01:14AM 42.0000 -60.0000 71° East 446 513 32,000  Level FlightAware Transoceanic
01:15AM 42.0397 -59.8416 71° East 446 513 32,000  Level FlightAware Transoceanic
01:15AM 42.0000 -60.0000 71° East 456 525 32,000  Level New York Oceanic (ODAPS)
01:16AM 42.0791 -59.6829 72° East 446 513 32,000  Level FlightAware Transoceanic
01:17AM 42.1183 -59.5241 72° East 446 513 32,000  Level FlightAware Transoceanic
01:18AM 42.1573 -59.3651 72° East 446 513 32,000  Level FlightAware Transoceanic
01:19AM 42.1961 -59.2058 72° East 446 513 32,000  Level FlightAware Transoceanic
01:20AM 42.2346 -59.0464 72° East 446 513 32,000  Level FlightAware Transoceanic
01:21AM 42.2730 -58.8868 72° East 446 513 32,000  Level FlightAware Transoceanic
01:22AM 42.3162 -58.7057 72° East 456 525 32,000  Level FlightAware Transoceanic
01:23AM 42.3547 -58.5430 72° East 456 525 32,000  Level FlightAware Transoceanic
01:24AM 42.3929 -58.3801 72° East 456 525 32,000  Level FlightAware Transoceanic
01:25AM 42.4310 -58.2170 73° East 456 525 32,000  Level FlightAware Transoceanic
01:26AM 42.4688 -58.0537 73° East 456 525 32,000  Level FlightAware Transoceanic
01:27AM 42.5063 -57.8902 73° East 456 525 32,000  Level FlightAware Transoceanic
01:28AM 42.5437 -57.7265 73° East 456 525 32,000  Level FlightAware Transoceanic
01:29AM 42.5808 -57.5627 73° East 456 525 32,000  Level FlightAware Transoceanic
01:30AM 42.6176 -57.3986 73° East 456 525 32,000  Level FlightAware Transoceanic
01:31AM 42.6543 -57.2343 73° East 456 525 32,000  Level FlightAware Transoceanic
01:32AM 42.6907 -57.0699 73° East 456 525 32,000  Level FlightAware Transoceanic
01:33AM 42.7268 -56.9052 73° East 456 525 32,000  Level FlightAware Transoceanic
01:34AM 42.7628 -56.7404 74° East 456 525 32,000  Level FlightAware Transoceanic
01:35AM 42.7985 -56.5753 74° East 456 525 32,000  Level FlightAware Transoceanic
01:36AM 42.8339 -56.4101 74° East 456 525 32,000  Level FlightAware Transoceanic
01:37AM 42.8691 -56.2447 74° East 456 525 32,000  Level FlightAware Transoceanic
01:38AM 42.9041 -56.0791 74° East 456 525 32,000  Level FlightAware Transoceanic
01:39AM 42.9389 -55.9133 74° East 456 525 32,000  Level FlightAware Transoceanic
01:40AM 42.9734 -55.7473 74° East 456 525 32,000  Level FlightAware Transoceanic
01:41AM 43.0076 -55.5812 74° East 456 525 32,000  Level FlightAware Transoceanic
01:42AM 43.0416 -55.4148 74° East 456 525 32,000  Level FlightAware Transoceanic
01:43AM 43.0754 -55.2483 75° East 456 525 32,000  Level FlightAware Transoceanic
01:44AM 43.1089 -55.0816 75° East 456 525 32,000  Level FlightAware Transoceanic
01:45AM 43.1422 -54.9147 75° East 456 525 32,000  Level FlightAware Transoceanic
01:46AM 43.1753 -54.7476 75° East 456 525 32,000  Level FlightAware Transoceanic
01:47AM 43.2081 -54.5804 75° East 456 525 32,000  Level FlightAware Transoceanic
01:48AM 43.2407 -54.4129 75° East 456 525 32,000  Level FlightAware Transoceanic
01:49AM 43.2730 -54.2453 75° East 456 525 32,000  Level FlightAware Transoceanic
01:50AM 43.3050 -54.0775 75° East 456 525 32,000  Level FlightAware Transoceanic
01:51AM 43.3369 -53.9096 75° East 456 525 32,000  Level FlightAware Transoceanic
01:52AM 43.3685 -53.7414 76° East 456 525 32,000  Level FlightAware Transoceanic
01:53AM 43.3998 -53.5731 76° East 456 525 32,000  Level FlightAware Transoceanic
01:54AM 43.4309 -53.4046 76° East 456 525 32,000  Level FlightAware Transoceanic
01:55AM 43.4617 -53.2360 76° East 456 525 32,000  Level FlightAware Transoceanic
01:56AM 43.4923 -53.0671 76° East 456 525 32,000  Level FlightAware Transoceanic
01:57AM 43.5227 -52.8981 76° East 456 525 32,000  Level FlightAware Transoceanic
01:58AM 43.5528 -52.7289 76° East 456 525 32,000  Level FlightAware Transoceanic
01:59AM 43.5826 -52.5596 76° East 456 525 32,000  Level FlightAware Transoceanic
02:00AM 43.6122 -52.3901 77° East 456 525 32,000  Level FlightAware Transoceanic
02:01AM 43.6415 -52.2204 77° East 456 525 32,000  Level FlightAware Transoceanic
02:02AM 43.6707 -52.0506 77° East 456 525 32,000  Level FlightAware Transoceanic
02:03AM 43.6995 -51.8806 77° East 456 525 32,000  Level FlightAware Transoceanic
02:04AM 43.7281 -51.7104 77° East 456 525 32,000  Level FlightAware Transoceanic
02:05AM 43.7564 -51.5401 77° East 456 525 32,000  Level FlightAware Transoceanic
02:06AM 43.7845 -51.3696 77° East 456 525 32,000  Level FlightAware Transoceanic
02:07AM 43.8123 -51.1989 77° East 456 525 32,000  Level FlightAware Transoceanic
02:08AM 43.8399 -51.0281 77° East 456 525 32,000  Level FlightAware Transoceanic
02:09AM 43.8672 -50.8572 78° East 456 525 32,000  Level FlightAware Transoceanic
02:10AM 43.8943 -50.6860 78° East 456 525 32,000  Level FlightAware Transoceanic
02:11AM 43.9211 -50.5148 78° East 456 525 32,000  Level FlightAware Transoceanic
02:12AM 43.9477 -50.3433 78° East 456 525 32,000  Level FlightAware Transoceanic
02:13AM 43.9740 -50.1717 78° East 456 525 32,000  Level FlightAware Transoceanic
02:14AM 44.0000 -50.0000 71° East 456 525 32,000  Level FlightAware Transoceanic
02:15AM 44.0424 -49.8309 71° East 456 525 32,000  Level FlightAware Transoceanic
02:15AM 44.0000 -50.0000 71° East 473 544 32,000  Level New York Oceanic (ODAPS)
02:16AM 44.0846 -49.6615 71° East 456 525 32,000  Level FlightAware Transoceanic
02:17AM 44.1266 -49.4918 71° East 456 525 32,000  Level FlightAware Transoceanic
02:18AM 44.1683 -49.3220 71° East 456 525 32,000  Level FlightAware Transoceanic
02:19AM 44.2097 -49.1519 71° East 456 525 32,000  Level FlightAware Transoceanic
02:20AM 44.2509 -48.9815 71° East 456 525 32,000  Level FlightAware Transoceanic
02:21AM 44.2918 -48.8109 72° East 456 525 32,000  Level FlightAware Transoceanic
02:22AM 44.3794 -48.4416 72° East 473 544 32,000  Level FlightAware Transoceanic
02:23AM 44.4202 -48.2672 72° East 473 544 32,000  Level FlightAware Transoceanic
02:24AM 44.4608 -48.0925 72° East 473 544 32,000  Level FlightAware Transoceanic
02:25AM 44.5011 -47.9176 72° East 473 544 32,000  Level FlightAware Transoceanic
02:26AM 44.5411 -47.7425 72° East 473 544 32,000  Level FlightAware Transoceanic
02:27AM 44.5809 -47.5672 72° East 473 544 32,000  Level FlightAware Transoceanic
02:28AM 44.6204 -47.3916 73° East 473 544 32,000  Level FlightAware Transoceanic
02:29AM 44.6597 -47.2157 73° East 473 544 32,000  Level FlightAware Transoceanic
02:30AM 44.6986 -47.0397 73° East 473 544 32,000  Level FlightAware Transoceanic
02:31AM 44.7373 -46.8634 73° East 473 544 32,000  Level FlightAware Transoceanic
02:32AM 44.7757 -46.6868 73° East 473 544 32,000  Level FlightAware Transoceanic
02:33AM 44.8139 -46.5100 73° East 473 544 32,000  Level FlightAware Transoceanic
02:34AM 44.8518 -46.3330 73° East 473 544 32,000  Level FlightAware Transoceanic
02:35AM 44.8894 -46.1558 73° East 473 544 32,000  Level FlightAware Transoceanic
02:36AM 44.9267 -45.9783 74° East 473 544 32,000  Level FlightAware Transoceanic
02:37AM 44.9637 -45.8006 74° East 473 544 32,000  Level FlightAware Transoceanic
02:38AM 45.0005 -45.6227 74° East 473 544 32,000  Level FlightAware Transoceanic
02:39AM 45.0370 -45.4445 74° East 473 544 32,000  Level FlightAware Transoceanic
02:39AM 45.0000 -45.6167 74° East 471 542 32,000  Level ETMS Enhanced Traffic Management System
02:40AM 45.0732 -45.2661 74° East 473 544 32,000  Level FlightAware Transoceanic
02:41AM 45.1092 -45.0875 74° East 473 544 32,000  Level FlightAware Transoceanic
02:42AM 45.1449 -44.9087 74° East 473 544 32,000  Level FlightAware Transoceanic
02:43AM 45.1802 -44.7296 74° East 473 544 32,000  Level FlightAware Transoceanic
02:44AM 45.2154 -44.5503 75° East 473 544 32,000  Level FlightAware Transoceanic
02:45AM 45.2497 -44.3662 75° East 471 542 32,000  Level FlightAware Transoceanic
02:46AM 45.2843 -44.1866 75° East 471 542 32,000  Level FlightAware Transoceanic
02:47AM 45.3186 -44.0069 75° East 471 542 32,000  Level FlightAware Transoceanic
02:48AM 45.3525 -43.8269 75° East 471 542 32,000  Level FlightAware Transoceanic
02:49AM 45.3862 -43.6467 75° East 471 542 32,000  Level FlightAware Transoceanic
02:50AM 45.4197 -43.4663 75° East 471 542 32,000  Level FlightAware Transoceanic
02:51AM 45.4528 -43.2857 75° East 471 542 32,000  Level FlightAware Transoceanic
02:52AM 45.4857 -43.1049 76° East 471 542 32,000  Level FlightAware Transoceanic
02:53AM 45.5182 -42.9239 76° East 471 542 32,000  Level FlightAware Transoceanic
02:54AM 45.5505 -42.7426 76° East 471 542 32,000  Level FlightAware Transoceanic
02:55AM 45.5825 -42.5612 76° East 471 542 32,000  Level FlightAware Transoceanic
02:56AM 45.6142 -42.3796 76° East 471 542 32,000  Level FlightAware Transoceanic
02:57AM 45.6456 -42.1977 76° East 471 542 32,000  Level FlightAware Transoceanic
02:58AM 45.6768 -42.0156 76° East 471 542 32,000  Level FlightAware Transoceanic
02:59AM 45.7076 -41.8334 76° East 471 542 32,000  Level FlightAware Transoceanic
03:00AM 45.7382 -41.6509 77° East 471 542 32,000  Level FlightAware Transoceanic
03:01AM 45.7684 -41.4683 77° East 471 542 32,000  Level FlightAware Transoceanic
03:02AM 45.7984 -41.2854 77° East 471 542 32,000  Level FlightAware Transoceanic
03:03AM 45.8281 -41.1023 77° East 471 542 32,000  Level FlightAware Transoceanic
03:04AM 45.8575 -40.9191 77° East 471 542 32,000  Level FlightAware Transoceanic
03:05AM 45.8866 -40.7357 77° East 471 542 32,000  Level FlightAware Transoceanic
03:06AM 45.9154 -40.5520 77° East 471 542 32,000  Level FlightAware Transoceanic
03:07AM 45.9439 -40.3682 77° East 471 542 32,000  Level FlightAware Transoceanic
03:08AM 45.9721 -40.1842 78° East 471 542 32,000  Level FlightAware Transoceanic
03:09AM 46.0000 -40.0000 70° East 471 542 32,000  Level FlightAware Transoceanic
03:10AM 46.0448 -39.8219 70° East 471 542 32,000  Level FlightAware Transoceanic
03:10AM 46.0000 -40.0000 70° East 464 534 32,000  Level ETMS Enhanced Traffic Management System
03:11AM 46.0892 -39.6436 70° East 471 542 32,000  Level FlightAware Transoceanic
03:12AM 46.1335 -39.4649 70° East 471 542 32,000  Level FlightAware Transoceanic
03:13AM 46.1774 -39.2860 71° East 471 542 32,000  Level FlightAware Transoceanic
03:14AM 46.2211 -39.1068 71° East 471 542 32,000  Level FlightAware Transoceanic
03:15AM 46.2644 -38.9272 71° East 471 542 32,000  Level FlightAware Transoceanic
03:16AM 46.3020 -38.7704 71° East 464 534 32,000  Level FlightAware Transoceanic
03:17AM 46.3441 -38.5936 71° East 464 534 32,000  Level FlightAware Transoceanic
03:18AM 46.3859 -38.4166 71° East 464 534 32,000  Level FlightAware Transoceanic
03:19AM 46.4274 -38.2393 71° East 464 534 32,000  Level FlightAware Transoceanic
03:20AM 46.4687 -38.0617 71° East 464 534 32,000  Level FlightAware Transoceanic
03:21AM 46.5096 -37.8839 72° East 464 534 32,000  Level FlightAware Transoceanic
03:22AM 46.5503 -37.7057 72° East 464 534 32,000  Level FlightAware Transoceanic
03:23AM 46.5908 -37.5274 72° East 464 534 32,000  Level FlightAware Transoceanic
03:24AM 46.6309 -37.3487 72° East 464 534 32,000  Level FlightAware Transoceanic
03:25AM 46.6708 -37.1698 72° East 464 534 32,000  Level FlightAware Transoceanic
03:26AM 46.7103 -36.9907 72° East 464 534 32,000  Level FlightAware Transoceanic
03:27AM 46.7496 -36.8112 72° East 464 534 32,000  Level FlightAware Transoceanic
03:28AM 46.7887 -36.6315 72° East 464 534 32,000  Level FlightAware Transoceanic
03:29AM 46.8274 -36.4516 73° East 464 534 32,000  Level FlightAware Transoceanic
03:30AM 46.8659 -36.2714 73° East 464 534 32,000  Level FlightAware Transoceanic
03:31AM 46.9040 -36.0909 73° East 464 534 32,000  Level FlightAware Transoceanic
03:32AM 46.9419 -35.9102 73° East 464 534 32,000  Level FlightAware Transoceanic
03:33AM 46.9795 -35.7292 73° East 464 534 32,000  Level FlightAware Transoceanic
03:34AM 47.0169 -35.5480 73° East 464 534 32,000  Level FlightAware Transoceanic
03:35AM 47.0539 -35.3665 73° East 464 534 32,000  Level FlightAware Transoceanic
03:36AM 47.0906 -35.1848 74° East 464 534 32,000  Level FlightAware Transoceanic
03:37AM 47.1271 -35.0028 74° East 464 534 32,000  Level FlightAware Transoceanic
03:38AM 47.1633 -34.8206 74° East 464 534 32,000  Level FlightAware Transoceanic
03:39AM 47.1992 -34.6381 74° East 464 534 32,000  Level FlightAware Transoceanic
03:40AM 47.2347 -34.4554 74° East 464 534 32,000  Level FlightAware Transoceanic
03:41AM 47.2700 -34.2724 74° East 464 534 32,000  Level FlightAware Transoceanic
03:42AM 47.3050 -34.0892 74° East 464 534 32,000  Level FlightAware Transoceanic
03:43AM 47.3398 -33.9057 74° East 464 534 32,000  Level FlightAware Transoceanic
03:44AM 47.3742 -33.7220 75° East 464 534 32,000  Level FlightAware Transoceanic
03:45AM 47.4083 -33.5381 75° East 464 534 32,000  Level FlightAware Transoceanic
03:46AM 47.4422 -33.3539 75° East 464 534 32,000  Level FlightAware Transoceanic
03:47AM 47.4757 -33.1695 75° East 464 534 32,000  Level FlightAware Transoceanic
03:48AM 47.5089 -32.9849 75° East 464 534 32,000  Level FlightAware Transoceanic
03:49AM 47.5419 -32.8000 75° East 464 534 32,000  Level FlightAware Transoceanic
03:50AM 47.5745 -32.6149 75° East 464 534 32,000  Level FlightAware Transoceanic
03:51AM 47.6069 -32.4296 76° East 464 534 32,000  Level FlightAware Transoceanic
03:52AM 47.6389 -32.2440 76° East 464 534 32,000  Level FlightAware Transoceanic
03:53AM 47.6707 -32.0582 76° East 464 534 32,000  Level FlightAware Transoceanic
03:54AM 47.7021 -31.8722 76° East 464 534 32,000  Level FlightAware Transoceanic
03:55AM 47.7333 -31.6859 76° East 464 534 32,000  Level FlightAware Transoceanic
03:56AM 47.7641 -31.4995 76° East 464 534 32,000  Level FlightAware Transoceanic
03:57AM 47.7947 -31.3128 76° East 464 534 32,000  Level FlightAware Transoceanic
03:58AM 47.8249 -31.1259 77° East 464 534 32,000  Level FlightAware Transoceanic
03:59AM 47.8549 -30.9388 77° East 464 534 32,000  Level FlightAware Transoceanic
04:00AM 47.8845 -30.7514 77° East 464 534 32,000  Level FlightAware Transoceanic
04:01AM 47.9138 -30.5639 77° East 464 534 32,000  Level FlightAware Transoceanic
04:02AM 47.9429 -30.3761 77° East 464 534 32,000 60 Level FlightAware Transoceanic
04:03AM 47.9588 -30.1739 83° East  Level Estimated
04:04AM 47.9743 -29.9715 83° East  Level Estimated
04:05AM 47.9896 -29.7690 84° East  Level Estimated
04:06AM 48.0044 -29.5664 84° East  Level Estimated
04:07AM 48.0189 -29.3636 84° East  Level Estimated
04:08AM 48.0331 -29.1608 84° East  Level Estimated
04:09AM 48.0468 -28.9578 84° East  Level Estimated
04:10AM 48.0602 -28.7548 84° East  Level Estimated
04:11AM 48.0733 -28.5516 84° East  Level Estimated
04:12AM 48.0860 -28.3483 85° East  Level Estimated
04:13AM 48.0984 -28.1450 85° East  Level Estimated
04:14AM 48.1104 -27.9415 85° East  Level Estimated
04:14AM 48.0000 -30.0000 69° East 493 567 33,000  Level ETMS Enhanced Traffic Management System
04:15AM 48.1220 -27.7379 85° East  Level Estimated
04:16AM 48.1327 -27.5445 85° East  Level Estimated
04:17AM 48.1431 -27.3510 85° East  Level Estimated
04:18AM 48.1532 -27.1575 85° East  Level Estimated
04:19AM 48.1629 -26.9639 86° East  Level Estimated
04:20AM 48.0819 -28.8440 84° East  Level Estimated
04:21AM 48.0944 -28.6510 84° East  Level Estimated
04:22AM 48.1066 -28.4579 85° East  Level Estimated
04:23AM 48.1184 -28.2647 85° East  Level Estimated
04:24AM 48.1300 -28.0714 85° East  Level Estimated
04:25AM 48.1412 -27.8781 85° East  Level Estimated
04:26AM 48.1521 -27.6846 85° East  Level Estimated
04:27AM 48.1627 -27.4911 85° East  Level Estimated
04:28AM 48.1729 -27.2975 85° East  Level Estimated
04:29AM 48.1828 -27.1038 86° East  Level Estimated
04:30AM 48.1924 -26.9100 86° East  Level Estimated
04:31AM 48.2017 -26.7162 86° East  Level Estimated
04:32AM 48.2106 -26.5223 86° East  Level Estimated
04:33AM 48.2192 -26.3283 86° East  Level Estimated
04:34AM 48.2275 -26.1343 86° East  Level Estimated
04:35AM 48.2355 -25.9402 86° East  Level Estimated
04:36AM 48.2431 -25.7461 87° East  Level Estimated
04:37AM 48.2504 -25.5518 87° East  Level Estimated
04:38AM 48.2574 -25.3576 87° East  Level Estimated
04:39AM 48.2641 -25.1633 87° East  Level Estimated
04:40AM 48.2704 -24.9689 87° East  Level Estimated
04:41AM 48.2764 -24.7745 87° East  Level Estimated
04:42AM 48.2821 -24.5801 87° East  Level Estimated
04:43AM 48.2874 -24.3856 88° East  Level Estimated
04:44AM 48.2924 -24.1910 88° East  Level Estimated
04:45AM 48.2971 -23.9965 88° East  Level Estimated
04:46AM 48.3015 -23.8018 88° East  Level Estimated
04:47AM 48.3055 -23.6072 88° East  Level Estimated
04:48AM 48.3092 -23.4125 88° East  Level Estimated
04:49AM 48.3126 -23.2178 88° East  Level Estimated
04:50AM 48.3156 -23.0231 89° East  Level Estimated
04:51AM 48.3183 -22.8284 89° East  Level Estimated
04:52AM 48.3207 -22.6336 89° East  Level Estimated
04:53AM 48.3228 -22.4388 89° East  Level Estimated
04:54AM 48.3245 -22.2440 89° East  Level Estimated
04:55AM 48.3259 -22.0492 89° East  Level Estimated
04:56AM 48.3270 -21.8544 89° East  Level Estimated
04:57AM 48.3277 -21.6596 90° East  Level Estimated
04:58AM 48.3281 -21.4648 90° East  Level Estimated
04:59AM 48.3282 -21.2700 90° East  Level Estimated
05:00AM 48.3280 -21.0751 90° East  Level Estimated
05:01AM 48.3274 -20.8803 90° East  Level Estimated
05:02AM 48.3265 -20.6858 90° East  Level Estimated
05:03AM 48.3253 -20.4913 90° East  Level Estimated
05:04AM 48.3237 -20.2968 91° East  Level Estimated
05:05AM 48.3218 -20.1023 91° East  Level Estimated
05:06AM 48.3196 -19.9078 91° East  Level Estimated
05:07AM 48.3171 -19.7134 91° East  Level Estimated
05:08AM 48.3142 -19.5189 91° East  Level Estimated
05:09AM 48.3110 -19.3245 91° East  Level Estimated
05:10AM 48.3075 -19.1301 91° East  Level Estimated
05:11AM 48.3037 -18.9358 92° East  Level Estimated
05:12AM 48.2995 -18.7415 92° East  Level Estimated
05:13AM 48.2950 -18.5472 92° East  Level Estimated
05:14AM 48.2902 -18.3529 92° East  Level Estimated
05:15AM 48.2850 -18.1587 92° East  Level Estimated
05:16AM 48.2795 -17.9646 92° East  Level Estimated
05:17AM 48.2737 -17.7704 93° East  Level Estimated
05:18AM 48.2676 -17.5763 93° East  Level Estimated
05:19AM 48.2611 -17.3823 93° East  Level Estimated
05:20AM 48.2543 -17.1883 93° East  Level Estimated
05:21AM 48.2472 -16.9950 93° East  Level Estimated
05:22AM 48.2398 -16.8017 93° East  Level Estimated
05:23AM 48.2320 -16.6085 93° East  Level Estimated
05:24AM 48.2240 -16.4153 94° East  Level Estimated
05:25AM 48.2156 -16.2222 94° East  Level Estimated
05:26AM 48.2069 -16.0292 94° East  Level Estimated
05:27AM 48.1978 -15.8362 94° East  Level Estimated
05:28AM 48.1885 -15.6433 94° East  Level Estimated
05:29AM 48.1788 -15.4505 94° East  Level Estimated
05:30AM 48.1688 -15.2577 94° East  Level Estimated
05:31AM 48.1585 -15.0650 95° East  Level Estimated
05:32AM 48.1478 -14.8724 95° East  Level Estimated
05:33AM 48.1368 -14.6799 95° East  Level Estimated
05:34AM 48.1255 -14.4875 95° East  Level Estimated
05:35AM 48.1139 -14.2951 95° East  Level Estimated
05:36AM 48.1020 -14.1029 95° East  Level Estimated
05:37AM 48.0898 -13.9107 95° East  Level Estimated
05:38AM 48.0772 -13.7186 96° East  Level Estimated
05:39AM 48.0643 -13.5267 96° East  Level Estimated
05:40AM 48.0511 -13.3348 96° East  Level Estimated
05:41AM 48.0376 -13.1430 96° East  Level Estimated
05:42AM 48.0237 -12.9513 96° East  Level Estimated
05:43AM 48.0095 -12.7597 96° East  Level Estimated
05:44AM 47.9950 -12.5682 96° East  Level Estimated
05:45AM 47.9802 -12.3769 97° East  Level Estimated
05:45AM 49.2236 -8.9754 97° East 488 562 33,400  Level FlightAware UK
05:45AM 49.2137 -8.9130 104° East 488 562 33,400  Level FlightAware UK
05:46AM 49.2034 -8.8500 104° East 488 562 33,400  Level FlightAware UK
05:46AM 49.1931 -8.7872 104° East 488 562 33,400  Level FlightAware UK
05:46AM 49.1827 -8.7245 104° East 490 564 33,400 3,060 Level FlightAware UK
05:46AM 49.1890 -8.6520 104° East 509 586 34,900  Climbing FlightAware
05:47AM 49.1656 -8.6199 104° East 488 562 33,400 -2,460 Descending FlightAware UK
05:47AM 49.1551 -8.5573 104° East 488 562 33,400 4,560 Level FlightAware UK
05:47AM 49.1650 -8.5100 104° East 509 586 35,000  Climbing FlightAware
05:47AM 49.1446 -8.4948 104° East 490 564 33,400 -240 Descending FlightAware UK
05:47AM 49.1470 -8.4050 104° East 509 586 34,900  Climbing FlightAware
05:48AM 49.1270 -8.3906 104° East 488 562 33,400 -2,760 Descending FlightAware UK
05:48AM 49.1164 -8.3280 105° East 490 564 33,400 3,600 Level FlightAware UK
05:48AM 49.1240 -8.2650 105° East 508 585 34,900  Climbing FlightAware
05:48AM 49.1022 -8.2447 105° East 490 564 33,400 -2,580 Descending FlightAware UK
05:49AM 49.0917 -8.1822 104° East 492 566 33,400 3,180 Level FlightAware UK
05:49AM 49.0970 -8.1070 104° East 508 585 34,900  Climbing FlightAware
05:49AM 49.0738 -8.0783 104° East 488 562 33,400 -2,400 Descending FlightAware UK
05:50AM 49.0630 -8.0161 105° East 488 562 33,400 4,500 Level FlightAware UK
05:50AM 49.0730 -7.9660 105° East 508 585 34,900  Climbing FlightAware
05:50AM 49.0521 -7.9532 105° East 490 564 33,400 -2,700 Descending FlightAware UK
05:50AM 49.0413 -7.8911 105° East 490 564 33,400 3,720 Level FlightAware UK
05:50AM 49.0500 -7.8360 105° East 508 585 34,900  Climbing FlightAware
05:51AM 49.0269 -7.8083 105° East 490 564 33,400 -2,520 Descending FlightAware UK
05:51AM 49.0160 -7.7462 105° East 490 564 33,400 3,300 Level FlightAware UK
05:51AM 49.0230 -7.6800 105° East 506 582 34,900  Climbing FlightAware
05:51AM 49.0017 -7.6635 105° East 490 564 33,400 -2,760 Descending FlightAware UK
05:52AM 48.9908 -7.6016 105° East 490 564 33,400 3,600 Level FlightAware UK
05:52AM 48.9980 -7.5420 105° East 507 583 34,900  Climbing FlightAware
05:52AM 48.9673 -7.5246 105° East 490 564 33,400 -2,580 Descending FlightAware UK
05:52AM 48.9499 -7.4660 114° Southeast 490 564 33,400 3,180 Level FlightAware UK
05:52AM 48.9520 -7.3930 114° Southeast 508 585 34,900  Climbing FlightAware
05:53AM 48.9194 -7.3696 114° Southeast 488 562 33,400 -2,400 Descending FlightAware UK
05:53AM 48.9016 -7.3114 115° Southeast 488 562 33,400 4,800 Level FlightAware UK
05:53AM 48.9130 -7.2660 115° Southeast 507 583 35,000  Climbing FlightAware
05:53AM 48.8841 -7.2532 115° Southeast 490 564 33,400 -2,880 Descending FlightAware UK
05:54AM 48.8666 -7.1950 115° Southeast 490 564 33,400 3,300 Level FlightAware UK
05:54AM 48.8680 -7.1210 115° Southeast 508 585 35,000  Climbing FlightAware
05:54AM 48.8348 -7.0999 115° Southeast 488 562 33,400 -2,640 Descending FlightAware UK
05:54AM 48.8153 -7.0430 118° Southeast 490 564 33,400 4,260 Level FlightAware UK
05:54AM 48.8250 -6.9960 118° Southeast 508 585 34,900  Climbing FlightAware
05:55AM 48.7959 -6.9862 118° Southeast 488 562 33,400 -2,760 Descending FlightAware UK
05:55AM 48.7766 -6.9292 117° Southeast 488 562 33,400 3,600 Level FlightAware UK
05:55AM 48.7830 -6.8670 117° Southeast 508 585 34,900  Climbing FlightAware
05:55AM 48.7511 -6.8524 117° Southeast 488 562 33,400 -2,580 Descending FlightAware UK
05:56AM 48.7322 -6.7954 117° Southeast 488 562 33,400 3,180 Level FlightAware UK
05:56AM 48.7340 -6.7190 117° Southeast 508 585 34,900  Climbing FlightAware
05:56AM 48.7008 -6.7000 117° Southeast 488 562 33,400  Descending FlightAware UK
05:56AM 48.6980 -6.6130 117° Southeast 508 585 34,900  Climbing FlightAware
05:57AM 48.6819 -6.6428 117° Southeast 490 564 33,400 -6,000 Descending FlightAware UK
05:57AM 48.6693 -6.6047 117° Southeast 488 562 33,400  Level FlightAware UK
05:57AM 48.6502 -6.5476 117° Southeast 490 564 33,400  Level FlightAware UK
05:57AM 48.6311 -6.4907 117° Southeast 492 566 33,400  Level FlightAware UK
05:58AM 48.6120 -6.4338 117° Southeast 492 566 33,400  Level FlightAware UK
05:58AM 48.5928 -6.3770 117° Southeast 492 566 33,400  Level FlightAware UK
05:58AM 48.5735 -6.3203 117° Southeast 490 564 33,400  Level FlightAware UK
05:59AM 48.5544 -6.2636 117° Southeast 490 564 33,400  Level FlightAware UK
05:59AM 48.5352 -6.2072 117° Southeast 490 564 33,400  Level FlightAware UK
05:59AM 48.5159 -6.1508 117° Southeast 490 564 33,400  Level FlightAware UK
05:59AM 48.4966 -6.0945 117° Southeast 490 564 33,400  Level FlightAware UK
06:00AM 48.4772 -6.0382 117° Southeast 490 564 33,400 4,140 Level FlightAware UK
06:00AM 48.4920 -6.0020 117° Southeast 507 583 35,000  Climbing FlightAware
06:00AM 48.4514 -5.9633 117° Southeast 490 564 33,400 -2,640 Descending FlightAware UK
06:00AM 48.4321 -5.9072 117° Southeast 490 564 33,400  Level FlightAware UK
06:01AM 48.3867 -5.7756 117° Southeast 492 566 33,400  Level FlightAware UK
06:01AM 48.3672 -5.7196 118° Southeast 492 566 33,400  Level FlightAware UK
06:02AM 48.3476 -5.6636 118° Southeast 490 564 33,400  Level FlightAware UK
06:02AM 48.3215 -5.5890 118° Southeast 492 566 33,400  Level FlightAware UK
06:02AM 48.3019 -5.5331 118° Southeast 492 566 33,400  Level FlightAware UK
06:03AM 48.2693 -5.4403 118° Southeast 492 566 33,400  Level FlightAware UK
06:03AM 48.2498 -5.3848 118° Southeast 490 564 33,400  Level FlightAware UK
06:04AM 48.2304 -5.3293 118° Southeast 490 564 33,400  Level FlightAware UK
06:04AM 48.2108 -5.2740 118° Southeast 490 564 33,400 1,680 Level FlightAware UK
06:04AM 48.1940 -5.1490 118° Southeast 502 578 34,900 1,080 Climbing FlightAware
06:05AM 48.1410 -4.9980 118° Southeast 502 578 34,900  Level FlightAware
06:06AM 48.1060 -4.9020 119° Southeast 503 579 34,900  Level FlightAware
06:07AM 48.0370 -4.7070 118° Southeast 496 571 34,900  Level FlightAware
06:08AM 47.9700 -4.5160 118° Southeast 497 572 34,900  Level FlightAware
06:08AM 47.9270 -4.3930 118° Southeast 497 572 34,900  Level FlightAware
06:09AM 47.8830 -4.2710 118° Southeast 495 570 34,900  Level FlightAware
06:10AM 47.8060 -4.0590 118° Southeast 493 567 34,900  Level FlightAware
06:11AM 47.7560 -3.9200 118° Southeast 492 566 34,900  Level FlightAware
06:12AM 47.7100 -3.7950 119° Southeast 491 565 34,900  Level FlightAware
06:12AM 47.6680 -3.6770 118° Southeast 490 564 34,900  Level FlightAware
06:13AM 47.6330 -3.5640 115° Southeast 488 562 34,900  Level FlightAware
06:14AM 47.5860 -3.4100 114° Southeast 489 563 34,900  Level FlightAware
06:15AM 47.5360 -3.2530 115° Southeast 491 565 34,900  Level FlightAware
06:15AM 47.4920 -3.1110 115° Southeast 490 564 34,900  Level FlightAware
06:16AM 47.4540 -2.9880 115° Southeast 492 566 34,900  Level FlightAware
06:17AM 47.4140 -2.8610 115° Southeast 494 568 34,900  Level FlightAware
06:18AM 47.3740 -2.7310 114° Southeast 495 570 34,900 60 Level FlightAware
06:18AM 47.3310 -2.5950 115° Southeast 496 571 35,000  Climbing FlightAware
06:19AM 47.2910 -2.4700 115° Southeast 496 571 34,900 -120 Descending FlightAware
06:20AM 47.2530 -2.3490 115° Southeast 494 568 34,900  Level FlightAware
06:20AM 47.2090 -2.2140 116° Southeast 494 568 34,900  Level FlightAware
06:21AM 47.1700 -2.0920 115° Southeast 493 567 34,900  Level FlightAware
06:22AM 47.1310 -1.9710 115° Southeast 493 567 34,900  Level FlightAware
06:22AM 47.0860 -1.8320 115° Southeast 493 567 34,900  Level FlightAware
06:23AM 47.0460 -1.7100 116° Southeast 495 570 34,900  Level FlightAware
06:24AM 47.0090 -1.5950 115° Southeast 495 570 34,900  Level FlightAware
06:25AM 46.9620 -1.4540 116° Southeast 497 572 34,900 60 Level FlightAware
06:25AM 46.9220 -1.3340 116° Southeast 498 573 35,000  Climbing FlightAware
06:26AM 46.8780 -1.2000 116° Southeast 500 575 34,900 -120 Descending FlightAware
06:27AM 46.8370 -1.0790 116° Southeast 502 578 34,900  Level FlightAware
06:27AM 46.7970 -0.9580 116° Southeast 503 579 34,900  Level FlightAware
06:28AM 46.7490 -0.8180 117° Southeast 505 581 34,900  Level FlightAware
06:29AM 46.7080 -0.6970 116° Southeast 507 583 34,900  Level FlightAware
06:29AM 46.6650 -0.5670 116° Southeast 506 582 34,900  Level FlightAware
06:30AM 46.7010 -0.6740 296° West 506 582 34,900 60 Level FlightAware
06:30AM 46.6260 -0.3840 111° Southeast 506 582 35,000  Climbing FlightAware
06:31AM 46.6070 -0.2570 102° East 506 582 34,900  Descending FlightAware
06:32AM 46.5690 -0.0580 105° East 505 581 35,000  Climbing FlightAware
06:33AM 46.5250 0.1590 106° East 504 580 34,900 -60 Descending FlightAware
06:34AM 46.5020 0.2760 106° East 504 580 34,900  Level FlightAware
06:35AM 46.4560 0.5290 105° East 506 582 35,000  Climbing FlightAware
06:36AM 46.4260 0.6830 106° East 508 585 34,900 -60 Descending FlightAware
06:37AM 46.3910 0.8720 105° East 508 585 34,900  Level FlightAware
06:38AM 46.3710 0.9830 105° East 508 585 34,900  Level FlightAware
06:38AM 46.3340 1.1740 106° East 509 586 34,900 60 Level FlightAware
06:39AM 46.3040 1.3300 106° East 508 585 35,000  Climbing FlightAware
06:40AM 46.2650 1.5300 106° East 508 585 34,900  Descending FlightAware
06:41AM 46.2330 1.7000 105° East 507 583 35,000  Climbing FlightAware
06:42AM 46.2000 1.8600 107° East 506 582 34,900 -120 Descending FlightAware
06:42AM 46.1740 1.9900 106° East 505 581 34,900  Level FlightAware
06:43AM 46.1450 2.1380 106° East 506 582 34,900 60 Level FlightAware
06:44AM 46.1190 2.2700 106° East 508 585 35,000 60 Climbing FlightAware
06:45AM 46.0970 2.3860 105° East 507 583 35,000 -120 Level FlightAware
06:45AM 46.0670 2.5390 106° East 507 583 34,900 -120 Descending FlightAware
06:46AM 46.0410 2.6710 106° East 508 585 34,900  Level FlightAware
06:47AM 46.0150 2.8010 106° East 507 583 34,900  Level FlightAware
06:47AM 45.9880 2.9380 106° East 508 585 34,900  Level FlightAware
06:48AM 45.9600 3.0790 106° East 508 585 34,900  Level FlightAware
06:49AM 45.9330 3.2210 105° East 508 585 34,900 60 Level FlightAware
06:49AM 45.8930 3.3410 116° Southeast 504 580 35,000 60 Climbing FlightAware
06:50AM 45.8300 3.4440 131° Southeast 503 579 35,000 -120 Level FlightAware
06:51AM 45.7590 3.5540 133° Southeast 503 579 34,900 -120 Descending FlightAware
06:52AM 45.6950 3.6530 133° Southeast 502 578 34,900  Level FlightAware
06:52AM 45.6230 3.7640 133° Southeast 501 577 34,900  Level FlightAware
06:53AM 45.5600 3.8630 132° Southeast 501 577 34,900  Level FlightAware
06:54AM 45.4910 3.9700 133° Southeast 500 575 34,900  Level FlightAware
06:54AM 45.4320 4.0610 133° Southeast 500 575 34,900  Level FlightAware
06:55AM 45.3700 4.1650 130° Southeast 502 578 34,900  Level FlightAware
06:56AM 45.3040 4.2880 127° Southeast 501 577 34,900 60 Level FlightAware
06:56AM 45.2470 4.3900 128° Southeast 500 575 35,000  Climbing FlightAware
06:57AM 45.1830 4.5040 129° Southeast 500 575 34,900  Descending FlightAware
06:58AM 45.1260 4.6050 129° Southeast 502 578 35,000  Climbing FlightAware
06:59AM 45.0670 4.7090 129° Southeast 504 580 34,900  Descending FlightAware
06:59AM 44.9980 4.8290 129° Southeast 508 585 35,000  Climbing FlightAware
07:00AM 44.9410 4.9290 129° Southeast 510 587 34,900 -120 Descending FlightAware
07:01AM 44.8740 5.0450 129° Southeast 511 588 34,900  Level FlightAware
07:01AM 44.8170 5.1440 129° Southeast 508 585 34,900  Level FlightAware
07:02AM 44.7560 5.2480 130° Southeast 507 583 34,900 60 Level FlightAware
07:03AM 44.6900 5.3640 129° Southeast 508 585 35,000  Climbing FlightAware
07:03AM 44.6290 5.4700 129° Southeast 508 585 34,900  Descending FlightAware
07:04AM 44.5660 5.5820 128° Southeast 508 585 35,000  Climbing FlightAware
07:05AM 44.5060 5.6880 128° Southeast 509 586 34,900 -120 Descending FlightAware
07:06AM 44.4520 5.7970 125° Southeast 509 586 34,900 60 Level FlightAware
07:06AM 44.3930 5.9240 123° Southeast 509 586 35,000  Climbing FlightAware
07:07AM 44.3420 6.0350 123° Southeast 507 583 34,900  Descending FlightAware
07:08AM 44.2900 6.1430 124° Southeast 508 585 35,000 60 Climbing FlightAware
07:08AM 44.2330 6.2620 124° Southeast 509 586 35,000 -120 Level FlightAware
07:09AM 44.1800 6.3700 124° Southeast 511 588 34,900 -120 Descending FlightAware
07:10AM 44.1210 6.4920 124° Southeast 510 587 34,900  Level FlightAware
07:10AM 44.0660 6.6040 124° Southeast 507 583 34,900  Level FlightAware
07:11AM 44.0090 6.7210 124° Southeast 503 579 34,900  Level FlightAware
07:12AM 43.9560 6.8280 125° Southeast 500 575 34,900  Level FlightAware
07:13AM 43.9060 6.9300 124° Southeast 500 575 34,900  Level FlightAware
07:13AM 43.8540 7.0350 124° Southeast 502 578 34,900  Level FlightAware
07:14AM 43.7960 7.1540 124° Southeast 502 578 34,900  Level FlightAware
07:15AM 43.7410 7.2640 125° Southeast 504 580 34,900  Level FlightAware
07:15AM 43.6820 7.3810 125° Southeast 500 575 34,900  Level FlightAware
07:16AM 43.6390 7.4660 125° Southeast 497 572 34,900 60 Level FlightAware
07:17AM 43.5680 7.6090 124° Southeast 494 568 35,000 120 Climbing FlightAware
07:17AM 43.5150 7.7120 125° Southeast 497 572 35,100 660 Climbing FlightAware
07:18AM 43.4570 7.8280 125° Southeast 498 573 36,000 1,080 Climbing FlightAware
07:19AM 43.4030 7.9320 126° Southeast 498 573 36,700 720 Climbing FlightAware
07:20AM 43.3510 8.0350 125° Southeast 500 575 37,000 180 Climbing FlightAware
07:20AM 43.2900 8.1530 125° Southeast 501 577 37,000 -120 Level FlightAware
07:21AM 43.2350 8.2590 125° Southeast 499 574 36,900 -120 Descending FlightAware
07:22AM 43.1760 8.3720 126° Southeast 499 574 36,900 60 Level FlightAware
07:22AM 43.1150 8.4890 126° Southeast 498 573 37,000 60 Climbing FlightAware
07:23AM 43.0610 8.5940 125° Southeast 499 574 37,000 -120 Level FlightAware
07:24AM 42.9930 8.7240 126° Southeast 500 575 36,900  Descending FlightAware
07:25AM 42.9360 8.8320 126° Southeast 499 574 37,000 60 Climbing FlightAware
07:25AM 42.8780 8.9420 126° Southeast 498 573 37,000 -120 Level FlightAware
07:26AM 42.8300 9.0320 126° Southeast 497 572 36,900 -120 Descending FlightAware
07:27AM 42.7650 9.1540 126° Southeast 497 572 36,900  Level FlightAware
07:28AM 42.7090 9.2580 126° Southeast 499 574 36,900  Level FlightAware
07:28AM 42.6550 9.3590 126° Southeast 496 571 36,900  Level FlightAware
07:29AM 42.5950 9.4720 126° Southeast 491 565 36,900  Level FlightAware
07:30AM 42.5520 9.5810 118° Southeast 498 573 36,900  Level FlightAware
07:30AM 42.5160 9.7160 110° East 497 572 36,900  Level FlightAware
07:31AM 42.4850 9.8330 110° East 498 573 36,900  Level FlightAware
07:32AM 42.4490 9.9670 110° East 498 573 36,900  Level FlightAware
07:32AM 42.4170 10.0840 110° East 498 573 36,900  Level FlightAware
07:33AM 42.3850 10.2020 110° East 498 573 36,900  Level FlightAware
07:34AM 42.3490 10.3330 110° East 498 573 36,900  Level FlightAware
07:35AM 42.3170 10.4520 110° East 498 573 36,900  Level FlightAware
07:35AM 42.2800 10.5830 111° Southeast 501 577 36,900  Level FlightAware
07:36AM 42.2470 10.7000 111° Southeast 502 578 36,900  Level FlightAware
07:37AM 42.2150 10.8170 110° East 502 578 36,900  Level FlightAware
07:37AM 42.1780 10.9460 111° Southeast 501 577 36,900  Level FlightAware
07:38AM 42.1450 11.0650 110° East 502 578 36,900  Level FlightAware
07:39AM 42.1120 11.1820 111° Southeast 502 578 36,900  Level FlightAware
07:39AM 42.0740 11.3140 111° Southeast 502 578 36,900  Level FlightAware
07:40AM 42.0350 11.4250 115° Southeast 491 565 36,900  Level FlightAware
07:41AM 41.9690 11.5300 130° Southeast 489 563 36,900  Level FlightAware
07:42AM 41.8990 11.6060 141° Southeast 472 543 36,900  Level FlightAware
07:42AM 41.8160 11.6380 164° South 470 541 36,900  Level FlightAware
07:43AM 41.7210 11.6570 172° South 480 552 36,900  Level FlightAware
07:43AM 41.6930 11.6830 145° Southeast 482 555 36,900  Level FlightAware
07:44AM 41.6600 11.7470 125° Southeast 501 577 36,900 60 Level FlightAware
07:44AM 41.6230 11.8770 111° Southeast 501 577 37,000  Climbing FlightAware
07:45AM 41.5730 11.9780 123° Southeast 492 566 36,900 -120 Descending FlightAware
07:46AM 41.5150 12.0740 129° Southeast 496 571 36,900  Level FlightAware
07:46AM 41.4530 12.1700 131° Southeast 496 571 36,900  Level FlightAware
07:47AM 41.3900 12.2670 131° Southeast 490 564 36,900  Level FlightAware
07:49AM 41.1960 12.5620 131° Southeast 492 566 36,900  Level FlightAware
07:51AM 41.0860 12.7250 132° Southeast 498 573 36,900  Level FlightAware
07:52AM 41.0170 12.8290 131° Southeast 497 572 36,900  Level FlightAware
07:53AM 40.9690 12.9000 132° Southeast 498 573 36,900  Level FlightAware
07:53AM 40.8460 13.1260 126° Southeast 504 580 36,900 240 Level FlightAware
07:54AM 40.7780 13.2820 120° Southeast 504 580 37,400 600 Climbing FlightAware
07:55AM 40.7160 13.4240 120° Southeast 504 580 38,100 840 Climbing FlightAware
07:56AM 40.6640 13.5410 120° Southeast 505 581 38,600 600 Climbing FlightAware
07:56AM 40.6160 13.6480 121° Southeast 507 583 39,000 180 Climbing FlightAware
07:57AM 40.5630 13.7690 120° Southeast 509 586 38,900 -120 Descending FlightAware
07:58AM 40.5140 13.8780 121° Southeast 510 587 38,900  Level FlightAware
07:59AM 40.4670 13.9840 120° Southeast 512 589 38,900  Level FlightAware
07:59AM 40.4130 14.1040 121° Southeast 512 589 38,900  Level FlightAware
08:00AM 40.3630 14.2130 121° Southeast 513 590 38,900  Level FlightAware
08:01AM 40.3080 14.3360 120° Southeast 515 593 38,900  Level FlightAware
08:01AM 40.2600 14.4410 121° Southeast 514 592 38,900  Level FlightAware
08:02AM 40.2110 14.5490 121° Southeast 513 590 38,900  Level FlightAware
08:03AM 40.1580 14.6660 121° Southeast 509 586 38,900  Level FlightAware
08:03AM 40.1090 14.7710 121° Southeast 509 586 38,900  Level FlightAware
08:04AM 40.0600 14.8770 121° Southeast 506 582 38,900  Level FlightAware
08:05AM 40.0070 14.9920 121° Southeast 503 579 38,900  Level FlightAware
08:06AM 39.9580 15.0990 121° Southeast 501 577 38,900  Level FlightAware
08:06AM 39.9050 15.2130 121° Southeast 499 574 38,900  Level FlightAware
08:07AM 39.8570 15.3160 121° Southeast 498 573 38,900  Level FlightAware
08:08AM 39.8100 15.4160 121° Southeast 498 573 38,900  Level FlightAware
08:08AM 39.7560 15.5310 121° Southeast 498 573 38,900  Level FlightAware
08:09AM 39.7070 15.6360 121° Southeast 499 574 38,900  Level FlightAware
08:10AM 39.6530 15.7490 122° Southeast 499 574 38,900  Level FlightAware
08:10AM 39.6110 15.8530 118° Southeast 505 581 38,900  Level FlightAware
08:11AM 39.5720 15.9670 114° Southeast 506 582 38,900  Level FlightAware
08:12AM 39.5290 16.0970 113° Southeast 506 582 38,900  Level FlightAware
08:13AM 39.4920 16.2090 113° Southeast 507 583 38,900  Level FlightAware
08:13AM 39.4540 16.3270 113° Southeast 507 583 38,900  Level FlightAware
08:14AM 39.4160 16.4430 113° Southeast 506 582 38,900  Level FlightAware
08:15AM 39.3740 16.5700 113° Southeast 505 581 38,900  Level FlightAware
08:15AM 39.3370 16.6820 113° Southeast 504 580 38,900  Level FlightAware
08:16AM 39.3000 16.7930 113° Southeast 503 579 38,900  Level FlightAware
08:17AM 39.2600 16.9140 113° Southeast 503 579 38,900  Level FlightAware
08:17AM 39.2230 17.0240 113° Southeast 501 577 38,900  Level FlightAware
08:18AM 39.1820 17.1460 113° Southeast 503 579 38,900  Level FlightAware
08:19AM 39.1510 17.2390 113° Southeast 503 579 38,900  Level FlightAware
08:20AM 39.1030 17.3770 114° Southeast 503 579 38,900  Level FlightAware
08:20AM 39.0730 17.4660 113° Southeast 505 581 38,900  Level FlightAware
08:21AM 39.0410 17.5580 114° Southeast 505 581 38,900  Level FlightAware
08:22AM 38.9970 17.6860 114° Southeast 505 581 38,900  Level FlightAware
08:22AM 38.9650 17.7790 114° Southeast 504 580 38,900  Level FlightAware
08:23AM 38.9110 17.9340 114° Southeast 503 579 38,900  Level FlightAware
08:24AM 38.8850 18.0090 114° Southeast 502 578 38,900  Level FlightAware
08:25AM 38.8220 18.1890 114° Southeast 503 579 38,900  Level FlightAware
08:25AM 38.7840 18.2950 115° Southeast 503 579 38,900  Level FlightAware
08:26AM 38.7460 18.4020 114° Southeast 505 581 38,900  Level FlightAware
08:27AM 38.7020 18.5250 115° Southeast 505 581 38,900  Level FlightAware
08:27AM 38.6600 18.6430 114° Southeast 503 579 38,900  Level FlightAware
08:28AM 38.6210 18.7510 115° Southeast 503 579 38,900  Level FlightAware
08:29AM 38.5810 18.8640 114° Southeast 505 581 38,900  Level FlightAware
08:30AM 38.5440 18.9760 113° Southeast 507 583 38,900  Level FlightAware
08:30AM 38.5110 19.0840 111° Southeast 507 583 38,900  Level FlightAware
08:31AM 38.4750 19.2030 111° Southeast 507 583 38,900  Level FlightAware
08:32AM 38.4400 19.3260 110° East 512 589 38,900  Level FlightAware
08:32AM 38.4050 19.4420 111° Southeast 510 587 38,900  Level FlightAware
08:33AM 38.3720 19.5540 111° Southeast 506 582 38,900  Level FlightAware
08:34AM 38.3170 19.7340 111° Southeast 503 579 38,900  Level FlightAware
08:35AM 38.2840 19.8430 111° Southeast 504 580 39,000  Climbing FlightAware
08:35AM 38.2490 19.9550 112° Southeast 506 582 38,900 -120 Descending FlightAware
08:36AM 38.2140 20.0700 111° Southeast 507 583 38,900  Level FlightAware
08:37AM 38.1510 20.2760 111° Southeast 509 586 38,900  Level FlightAware
08:38AM 38.1240 20.3630 112° Southeast 509 586 38,900 60 Level FlightAware
08:38AM 38.0820 20.4980 112° Southeast 511 588 39,000  Climbing FlightAware
08:39AM 38.0500 20.6020 111° Southeast 510 587 38,900 -120 Descending FlightAware
08:40AM 38.0210 20.6970 111° Southeast 510 587 38,900  Level FlightAware
08:41AM 37.9760 20.8320 113° Southeast 511 588 38,900  Level FlightAware
08:41AM 37.9390 20.9550 111° Southeast 511 588 38,900 60 Level FlightAware
08:42AM 37.9020 21.0660 113° Southeast 510 587 39,000  Climbing FlightAware
08:43AM 37.8590 21.2020 112° Southeast 510 587 38,900 -120 Descending FlightAware
08:43AM 37.8230 21.3120 112° Southeast 509 586 38,900  Level FlightAware
08:44AM 37.7840 21.4320 112° Southeast 507 583 38,900  Level FlightAware
08:45AM 37.7490 21.5410 112° Southeast 507 583 38,900  Level FlightAware
08:45AM 37.7120 21.6530 113° Southeast 507 583 38,900  Level FlightAware
08:46AM 37.6700 21.7800 113° Southeast 506 582 38,900  Level FlightAware
08:47AM 37.6360 21.8860 112° Southeast 506 582 38,900  Level FlightAware
08:48AM 37.5940 22.0140 112° Southeast 506 582 38,900  Level FlightAware
08:48AM 37.5600 22.1150 113° Southeast 505 581 38,900  Level FlightAware
08:49AM 37.5210 22.2320 113° Southeast 505 581 38,900  Level FlightAware
08:50AM 37.4820 22.3490 113° Southeast 505 581 38,900  Level FlightAware
08:50AM 37.4410 22.4690 113° Southeast 506 582 38,900  Level FlightAware
08:51AM 37.4030 22.5830 113° Southeast 507 583 38,900  Level FlightAware
08:52AM 37.3620 22.7020 113° Southeast 505 581 38,900  Level FlightAware
08:53AM 37.3260 22.8090 113° Southeast 504 580 38,900  Level FlightAware
08:53AM 37.2840 22.9320 113° Southeast 502 578 38,900  Level FlightAware
08:54AM 37.2470 23.0390 113° Southeast 500 575 38,900  Level FlightAware
08:55AM 37.2110 23.1410 114° Southeast 498 573 38,900  Level FlightAware
08:55AM 37.1690 23.2630 113° Southeast 498 573 38,900  Level FlightAware
08:56AM 37.1330 23.3670 113° Southeast 498 573 38,900  Level FlightAware
08:57AM 37.0900 23.4900 114° Southeast 499 574 38,900  Level FlightAware
08:57AM 37.0530 23.5960 114° Southeast 501 577 38,900  Level FlightAware
08:58AM 37.0150 23.7040 114° Southeast 502 578 38,900  Level FlightAware
08:59AM 36.9740 23.8180 114° Southeast 504 580 38,900  Level FlightAware
09:00AM 36.9360 23.9260 114° Southeast 506 582 38,900  Level FlightAware
09:00AM 36.8980 24.0340 114° Southeast 508 585 38,900  Level FlightAware
09:01AM 36.8540 24.1580 114° Southeast 513 590 38,900  Level FlightAware
09:02AM 36.8150 24.2650 114° Southeast 516 594 38,900  Level FlightAware
09:02AM 36.7720 24.3840 114° Southeast 519 597 38,900  Level FlightAware
09:03AM 36.7320 24.4950 114° Southeast 520 598 38,900  Level FlightAware
09:04AM 36.6890 24.6150 114° Southeast 522 601 38,900  Level FlightAware
09:04AM 36.6480 24.7280 114° Southeast 524 603 38,900  Level FlightAware
09:05AM 36.6080 24.8390 114° Southeast 526 605 38,900  Level FlightAware
09:06AM 36.5610 24.9660 115° Southeast 527 606 38,900  Level FlightAware
09:07AM 36.5200 25.0760 115° Southeast 527 606 38,900  Level FlightAware
09:07AM 36.4800 25.1850 115° Southeast 525 604 38,900  Level FlightAware
09:08AM 36.4370 25.3030 114° Southeast 523 602 38,900  Level FlightAware
09:09AM 36.3960 25.4130 115° Southeast 521 600 38,900  Level FlightAware
09:09AM 36.3500 25.5370 115° Southeast 518 596 38,900  Level FlightAware
09:10AM 36.3090 25.6460 115° Southeast 516 594 38,900  Level FlightAware
09:11AM 36.2650 25.7630 115° Southeast 514 592 38,900  Level FlightAware
09:11AM 36.2250 25.8710 115° Southeast 512 589 38,900  Level FlightAware
09:12AM 36.1780 25.9980 115° Southeast 511 588 38,900  Level FlightAware
09:13AM 36.1370 26.1120 114° Southeast 511 588 38,900  Level FlightAware
09:14AM 36.1040 26.2020 114° Southeast 511 588 38,900  Level FlightAware
09:15AM 36.0340 26.3740 117° Southeast 510 587 38,900  Level FlightAware
09:15AM 35.9850 26.5030 115° Southeast 509 586 38,900  Level FlightAware
09:16AM 35.9500 26.5930 116° Southeast 509 586 38,900  Level FlightAware
09:17AM 35.9080 26.7050 115° Southeast 509 586 38,900  Level FlightAware
09:18AM 35.8360 26.8890 116° Southeast 505 581 38,900  Level FlightAware
09:19AM 35.7950 26.9950 115° Southeast 506 582 38,900  Level FlightAware
09:19AM 35.7540 27.1040 115° Southeast 506 582 38,900  Level FlightAware
09:20AM 35.7200 27.1920 115° Southeast 506 582 38,900  Level FlightAware
09:21AM 35.6870 27.2810 115° Southeast 506 582 38,900  Level FlightAware
09:21AM 35.6530 27.3700 115° Southeast 506 582 38,900  Level FlightAware
09:22AM 35.6190 27.4590 115° Southeast 506 582 38,900  Level FlightAware
09:23AM 35.5770 27.5700 115° Southeast 506 582 38,900  Level FlightAware
09:24AM 35.5440 27.6580 115° Southeast 506 582 38,900  Level FlightAware
09:24AM 35.5100 27.7470 115° Southeast 506 582 38,900  Level FlightAware
09:25AM 35.4760 27.8360 115° Southeast 506 582 38,900  Level FlightAware
09:26AM 35.3600 28.1010 118° Southeast 514 592 38,900  Level FlightAware
09:26AM 35.3110 28.2220 116° Southeast 514 592 38,900  Level FlightAware
09:27AM 35.2700 28.3240 116° Southeast 515 593 38,900 -240 Level FlightAware
09:28AM 35.2270 28.4310 116° Southeast 514 592 38,600 -600 Descending FlightAware
09:28AM 35.1810 28.5440 116° Southeast 503 579 38,100 -1,020 Descending FlightAware
09:29AM 35.1410 28.6450 116° Southeast 506 582 37,200 -780 Descending FlightAware
09:30AM 35.0980 28.7500 117° Southeast 506 582 37,000 -240 Descending FlightAware
09:31AM 35.0550 28.8570 116° Southeast 508 585 36,900 -120 Descending FlightAware
09:31AM 35.0120 28.9620 117° Southeast 511 588 36,900  Level FlightAware
09:32AM 34.9610 29.0860 117° Southeast 510 587 36,900  Level FlightAware
09:33AM 34.9100 29.2120 116° Southeast 510 587 36,900  Level FlightAware
09:33AM 34.8710 29.3050 117° Southeast 507 583 36,900  Level FlightAware
09:34AM 34.8300 29.4040 117° Southeast 504 580 36,900  Level FlightAware
09:35AM 34.7770 29.5320 117° Southeast 502 578 36,900  Level FlightAware
09:36AM 34.7290 29.6470 117° Southeast 501 577 36,900  Level FlightAware
09:36AM 34.6860 29.7510 117° Southeast 499 574 36,900  Level FlightAware
09:37AM 34.6430 29.8540 117° Southeast 497 572 36,900  Level FlightAware
09:38AM 34.6070 29.9360 118° Southeast 499 574 36,900  Level FlightAware
09:38AM 34.5700 30.0200 118° Southeast 499 574 36,900  Level FlightAware
09:39AM 34.5060 30.1430 122° Southeast 493 567 36,900 60 Level FlightAware
09:40AM 34.4550 30.2540 119° Southeast 495 570 37,000  Climbing FlightAware
09:41AM 34.4040 30.3600 120° Southeast 497 572 36,900 -120 Descending FlightAware
09:41AM 34.3630 30.4480 119° Southeast 488 562 36,900  Level FlightAware
09:42AM 34.2780 30.6270 120° Southeast 473 544 36,900  Level FlightAware
09:44AM 34.2080 30.7750 120° Southeast 472 543 36,900  Level FlightAware
09:45AM 34.1280 30.9410 120° Southeast 472 543 36,900  Level FlightAware
09:46AM 34.0380 31.1300 120° Southeast 468 539 36,900  Level FlightAware
09:47AM 33.9730 31.2640 120° Southeast 467 537 36,900  Level FlightAware
09:48AM 33.9290 31.3560 120° Southeast 467 537 36,900  Level FlightAware
09:48AM 33.8830 31.4510 120° Southeast 467 537 36,900  Level FlightAware
09:49AM 33.8330 31.5530 121° Southeast 468 539 36,900  Level FlightAware
09:50AM 33.7880 31.6450 120° Southeast 472 543 36,900 -180 Level FlightAware
09:51AM 33.7370 31.7490 121° Southeast 477 549 36,700 -1,140 Descending FlightAware
09:51AM 33.6920 31.8420 120° Southeast 486 559 35,300 -1,380 Descending FlightAware
09:52AM 33.6460 31.9360 120° Southeast 481 554 34,900 -660 Descending FlightAware
09:53AM 33.5960 32.0360 121° Southeast 471 542 34,400 -660 Descending FlightAware
09:53AM 33.5520 32.1260 120° Southeast 460 529 34,000 -960 Descending FlightAware
09:54AM 33.5010 32.2280 121° Southeast 459 528 33,100 -1,140 Descending FlightAware
09:56AM 33.4010 32.4300 121° Southeast 464 534 31,400 -960 Descending FlightAware
09:56AM 33.3700 32.5400 109° East 456 525 30,900 -360 Descending FlightAware
09:57AM 33.3500 32.6400 103° East 456 525 30,900  Level FlightAware
09:58AM 33.3300 32.7380 104° East 456 525 30,900  Level FlightAware
09:59AM 33.3070 32.8500 104° East 454 522 30,900 -300 Level FlightAware
09:59AM 33.2880 32.9480 103° East 448 516 30,500 -1,560 Descending FlightAware
10:00AM 33.2650 33.0570 104° East 439 505 28,700 -2,520 Descending FlightAware
10:01AM 33.2430 33.1640 104° East 434 499 26,800 -2,400 Descending FlightAware
10:01AM 33.2260 33.2460 104° East 423 487 25,500 -1,440 Descending FlightAware
10:02AM 33.1910 33.3450 113° Southeast 449 517 24,900 -480 Descending FlightAware
10:03AM 33.1400 33.4130 132° Southeast 476 548 24,900 -900 Level FlightAware
10:03AM 33.0710 33.4980 134° Southeast 481 554 23,700 -1,980 Descending FlightAware
10:04AM 32.9910 33.5950 135° Southeast 481 554 21,800 -2,220 Descending FlightAware
10:05AM 32.9320 33.6660 135° Southeast 466 536 20,600 -1,860 Descending FlightAware
10:06AM 32.8640 33.7490 134° Southeast 427 491 19,200 -1,740 Descending FlightAware
10:06AM 32.8120 33.8110 135° Southeast 400 460 18,200 -1,440 Descending FlightAware
10:07AM 32.7600 33.8750 134° Southeast 375 432 17,300 -1,320 Descending FlightAware
10:08AM 32.7080 33.9370 135° Southeast 354 407 16,400 -1,200 Descending FlightAware
10:08AM 32.6630 33.9920 134° Southeast 333 383 15,600 -1,140 Descending FlightAware
10:09AM 32.6200 34.0430 135° Southeast 316 364 14,900 -1,320 Descending FlightAware
10:10AM 32.5740 34.0990 134° Southeast 309 356 13,800 -1,560 Descending FlightAware
10:10AM 32.5360 34.1480 133° Southeast 305 351 12,700 -1,680 Descending FlightAware
10:11AM 32.5310 34.1720 104° East 305 351 12,300 -1,500 Descending FlightAware
10:11AM 32.5270 34.2450 94° East 301 346 11,200 -1,440 Descending FlightAware
10:12AM 32.5200 34.3090 97° East 298 343 10,300 -1,140 Descending FlightAware
10:12AM 32.5090 34.3270 126° Southeast 296 341 10,200 -480 Descending FlightAware
10:13AM 32.4970 34.3400 138° Southeast 296 341 10,100 -720 Descending FlightAware
10:13AM 32.4780 34.3480 160° South 295 339 9,900 -840 Descending FlightAware
10:13AM 32.4390 34.3440 185° South 292 336 9,500 -840 Descending FlightAware
10:14AM 32.4160 34.3390 190° South 292 336 9,300 -780 Descending FlightAware
10:14AM 32.3620 34.3290 189° South 289 333 8,800 -480 Descending FlightAware
10:15AM 32.3270 34.3220 190° South 289 333 8,800  Level FlightAware
10:15AM 32.3160 34.3200 189° South 289 333 8,800 -1,200 Level FlightAware
10:15AM 32.2700 34.3110 189° South 285 328 8,000 -840 Descending FlightAware
10:16AM 32.2370 34.3060 187° South 285 328 8,000  Level FlightAware
10:18AM 32.1475 34.5317 126° Southeast  Level Estimated
10:19AM 32.0925 34.6696 125° Southeast  Level Estimated
10:20AM 32.0374 34.8074 125° Southeast  Level Estimated
10:21AM 32.0000 34.8667 125° Southeast  Level FlightAware Approximate
10:22AM 32.0095 34.8769 125° Southeast  Level Estimated
10:23AM 32.0095 34.8769 125° Southeast  Level Estimated
10:24AM 32.0095 34.8769 125° Southeast  Level Estimated
10:25AM 32.0095 34.8769 125° Southeast  Level Estimated
10:26AM 32.0095 34.8769 125° Southeast  Level Estimated
10:27AM 32.0095 34.8769 125° Southeast  Level Estimated
10:28AM 32.0095 34.8769 125° Southeast  Level Estimated